Airfield :
LOGIN :

Register | Disclaimer

   EN    FR    IT 

 










Legend :    VFR   Marginal VFR   IFR   Intensive IFR   Very Intensive IFR
Visi :
Ceiling :
>= 8 km
>= 3000ft
5 to 8 km
1000 to 3000 ft
1500m to 5 km
500 to 1000 ft
800 to 1500m
200 to 500 ft
< 800m
< 200 ft
Symbols :   Thunderstorms  Fog  Heavy snow  Heavy precipitations  Wind > 20 kt
SIGMETs :     Misc.  Thunderstorms  Icing  Turbulence  Mountain Waves  Volcanic Ashes







- Airport Elevation : -11 ft
- IATA code : AMS


EHAM - Amsterdam Schiphol

CURRENT METAR :
  • 190725Z 30011KT 9000 SHRA BKN060CB 17/15 Q1007 NOSIG

EXPIRED METARs :
  • 190655Z 25017KT 220V280 6000 -SHRA VCTS SCT050CB 18/14 Q1008 TEMPO 6000 BECMG 34007KT
  • 190625Z 22009KT 9999 -SHRA FEW060CB 20/16 Q1008 TEMPO 24020G32KT 3000 TSRA BKN050
  • 190555Z 23007KT 190V260 CAVOK 20/16 Q1007 TEMPO FM0645 24020G32KT 3000 TSRA BKN050CB
  • 190525Z VRB02KT CAVOK 19/16 Q1006 TEMPO FM0645 24020G32KT 3000 TSRA BKN050CB
  • 190455Z VRB02KT CAVOK 18/15 Q1007 NOSIG

TAF TAF EHAM
Valid from the 19 at 06:00 until the 20 at 12:00 UTC


190448Z 1906/2012 16008KT CAVOK
PROB30
TEMPO 1906/1913 24020G30KT 4000 SHRA TSRA SCT060CB
BECMG 1909/1912 26009KT
TEMPO 1913/1919 24015G25KT 4000 SHRA TSRA SCT040CB
PROB40
TEMPO 1913/1919 24025G35KT 2000 +TSRAGR BKN040CB
BECMG 1919/1922 23004KT SCT008 BKN015
PROB40 1920/2007 7000 BKN008
PROB30
TEMPO 1922/2012 4500 SHRA RA BKN008 SCT050CB
BECMG 2008/2011 27010KT SCT017
No reported NOTAMs for that airfield.
2 SIGMETs reported for the Amsterdam FIR (EHAA) :
 
Frequent thunderstorms
EHAA SIGMET 2 VALID 190730/190930 EHDB
EHAA AMSTERDAM FIR FRQ TS OBS WI N5126 E00455 - N5206 E00434 - N5221 E00457 - N5203 E00521 - N5117 E00530 - N5126 E00455 TOP FL360 MOV NE 30KT WKN=
Frequent thunderstorms and hail
EHAA SIGMET 1 VALID 190530/190730 EHDB
EHAA AMSTERDAM FIR FRQ TSGR OBS WI N5126 E00301 - N5203 E00348 - N5148 E00454 - N5129 E00449 - N5113 E00359 - N5126 E00301 TOP FL400 MOV NE 35KT WKN=



MET'MAP, your aeronautical weather chart ! - Copyright ORBIFLY December 2007 - Disclaimer

ORBIFLY MET'MAP TEAM :

Programming & Development : Alexandra Zaïnal
Concept & Development : Baudouin d'Aumeries
Co-Development & Prog : Marc-Olivier Méhu
Technical & hardware support : Manuel Goepfert

Contact : metmap@orbifly.com




SOURCES & CREDITS :

   NOAA